sensor_id;sensor_type;location;lat;lon;timestamp;P1;durP1;ratioP1;P2;durP2;ratioP2
31594;SDS011;18200;48.726;8.892;2023-10-08T00:02:33;15.75;;;5.90;;
31594;SDS011;18200;48.726;8.892;2023-10-08T00:06:34;13.40;;;5.38;;
31594;SDS011;18200;48.726;8.892;2023-10-08T00:10:35;13.73;;;4.70;;
31594;SDS011;18200;48.726;8.892;2023-10-08T00:14:37;10.40;;;5.45;;
31594;SDS011;18200;48.726;8.892;2023-10-08T00:18:44;9.57;;;4.78;;
31594;SDS011;18200;48.726;8.892;2023-10-08T00:22:51;11.95;;;5.05;;
31594;SDS011;18200;48.726;8.892;2023-10-08T00:26:54;12.47;;;5.77;;
31594;SDS011;18200;48.726;8.892;2023-10-08T00:30:56;10.98;;;5.68;;
31594;SDS011;18200;48.726;8.892;2023-10-08T00:34:58;9.80;;;4.70;;
31594;SDS011;18200;48.726;8.892;2023-10-08T00:38:59;13.30;;;5.45;;
31594;SDS011;18200;48.726;8.892;2023-10-08T00:43:00;10.60;;;5.07;;
31594;SDS011;18200;48.726;8.892;2023-10-08T00:47:04;9.13;;;4.77;;
31594;SDS011;18200;48.726;8.892;2023-10-08T00:51:05;12.05;;;5.20;;
31594;SDS011;18200;48.726;8.892;2023-10-08T00:55:15;9.63;;;4.63;;
31594;SDS011;18200;48.726;8.892;2023-10-08T00:59:21;8.52;;;4.53;;
31594;SDS011;18200;48.726;8.892;2023-10-08T01:03:23;9.55;;;4.50;;
31594;SDS011;18200;48.726;8.892;2023-10-08T01:07:27;9.13;;;4.93;;
31594;SDS011;18200;48.726;8.892;2023-10-08T01:11:27;8.88;;;4.30;;
31594;SDS011;18200;48.726;8.892;2023-10-08T01:15:46;12.40;;;4.65;;
31594;SDS011;18200;48.726;8.892;2023-10-08T01:19:50;15.50;;;4.60;;
31594;SDS011;18200;48.726;8.892;2023-10-08T01:23:55;10.63;;;5.40;;
31594;SDS011;18200;48.726;8.892;2023-10-08T01:27:56;11.63;;;4.70;;
31594;SDS011;18200;48.726;8.892;2023-10-08T01:32:00;10.38;;;4.78;;
31594;SDS011;18200;48.726;8.892;2023-10-08T01:36:02;10.05;;;4.80;;
31594;SDS011;18200;48.726;8.892;2023-10-08T01:40:04;10.82;;;4.93;;
31594;SDS011;18200;48.726;8.892;2023-10-08T01:44:11;13.82;;;4.93;;
31594;SDS011;18200;48.726;8.892;2023-10-08T01:48:12;10.10;;;4.40;;
31594;SDS011;18200;48.726;8.892;2023-10-08T01:52:13;12.70;;;5.05;;
31594;SDS011;18200;48.726;8.892;2023-10-08T01:56:22;13.38;;;5.05;;
31594;SDS011;18200;48.726;8.892;2023-10-08T02:00:24;9.85;;;4.63;;
31594;SDS011;18200;48.726;8.892;2023-10-08T02:04:26;10.93;;;4.43;;
31594;SDS011;18200;48.726;8.892;2023-10-08T02:08:26;11.80;;;4.65;;
31594;SDS011;18200;48.726;8.892;2023-10-08T02:12:27;11.27;;;5.53;;
31594;SDS011;18200;48.726;8.892;2023-10-08T02:16:27;10.02;;;4.60;;
31594;SDS011;18200;48.726;8.892;2023-10-08T02:20:28;11.10;;;5.18;;
31594;SDS011;18200;48.726;8.892;2023-10-08T02:24:28;12.82;;;5.45;;
31594;SDS011;18200;48.726;8.892;2023-10-08T02:28:30;8.80;;;4.63;;
31594;SDS011;18200;48.726;8.892;2023-10-08T02:32:30;10.27;;;4.93;;
31594;SDS011;18200;48.726;8.892;2023-10-08T02:36:31;10.90;;;4.60;;
31594;SDS011;18200;48.726;8.892;2023-10-08T02:40:32;10.13;;;4.47;;
31594;SDS011;18200;48.726;8.892;2023-10-08T02:44:32;13.55;;;5.00;;
31594;SDS011;18200;48.726;8.892;2023-10-08T02:48:33;11.15;;;4.20;;
31594;SDS011;18200;48.726;8.892;2023-10-08T02:52:35;9.48;;;4.72;;
31594;SDS011;18200;48.726;8.892;2023-10-08T02:56:35;11.23;;;4.78;;
31594;SDS011;18200;48.726;8.892;2023-10-08T03:00:36;13.93;;;5.72;;
31594;SDS011;18200;48.726;8.892;2023-10-08T03:04:36;11.82;;;5.55;;
31594;SDS011;18200;48.726;8.892;2023-10-08T03:08:37;11.27;;;5.10;;
31594;SDS011;18200;48.726;8.892;2023-10-08T03:12:40;13.05;;;5.35;;
31594;SDS011;18200;48.726;8.892;2023-10-08T03:16:43;9.48;;;5.32;;
31594;SDS011;18200;48.726;8.892;2023-10-08T03:20:48;11.05;;;5.40;;
31594;SDS011;18200;48.726;8.892;2023-10-08T03:24:49;12.38;;;5.35;;
31594;SDS011;18200;48.726;8.892;2023-10-08T03:28:50;13.75;;;5.28;;
31594;SDS011;18200;48.726;8.892;2023-10-08T03:32:59;12.00;;;5.18;;
31594;SDS011;18200;48.726;8.892;2023-10-08T03:37:01;13.15;;;5.60;;
31594;SDS011;18200;48.726;8.892;2023-10-08T03:41:05;10.63;;;4.45;;
31594;SDS011;18200;48.726;8.892;2023-10-08T03:45:09;8.68;;;4.35;;
31594;SDS011;18200;48.726;8.892;2023-10-08T03:49:10;8.70;;;4.50;;
31594;SDS011;18200;48.726;8.892;2023-10-08T03:53:23;14.30;;;4.93;;
31594;SDS011;18200;48.726;8.892;2023-10-08T03:57:23;9.00;;;4.30;;
31594;SDS011;18200;48.726;8.892;2023-10-08T04:01:41;9.75;;;4.00;;
31594;SDS011;18200;48.726;8.892;2023-10-08T04:05:42;9.65;;;4.43;;
31594;SDS011;18200;48.726;8.892;2023-10-08T04:10:14;12.73;;;4.47;;
31594;SDS011;18200;48.726;8.892;2023-10-08T04:14:33;9.20;;;4.20;;
31594;SDS011;18200;48.726;8.892;2023-10-08T04:18:34;12.70;;;4.35;;
31594;SDS011;18200;48.726;8.892;2023-10-08T04:22:40;15.57;;;4.25;;
31594;SDS011;18200;48.726;8.892;2023-10-08T04:26:41;13.70;;;4.75;;
31594;SDS011;18200;48.726;8.892;2023-10-08T04:30:42;9.00;;;4.10;;
31594;SDS011;18200;48.726;8.892;2023-10-08T04:34:45;10.70;;;4.85;;
31594;SDS011;18200;48.726;8.892;2023-10-08T04:38:46;9.55;;;4.72;;
31594;SDS011;18200;48.726;8.892;2023-10-08T04:42:54;12.05;;;5.13;;
31594;SDS011;18200;48.726;8.892;2023-10-08T04:46:54;10.48;;;4.53;;
31594;SDS011;18200;48.726;8.892;2023-10-08T04:50:55;12.77;;;5.10;;
31594;SDS011;18200;48.726;8.892;2023-10-08T04:54:58;10.85;;;5.03;;
31594;SDS011;18200;48.726;8.892;2023-10-08T04:59:06;14.20;;;5.82;;
31594;SDS011;18200;48.726;8.892;2023-10-08T05:03:09;12.63;;;5.57;;
31594;SDS011;18200;48.726;8.892;2023-10-08T05:07:16;10.48;;;4.60;;
31594;SDS011;18200;48.726;8.892;2023-10-08T05:11:39;14.93;;;4.78;;
31594;SDS011;18200;48.726;8.892;2023-10-08T05:15:57;12.45;;;4.63;;
31594;SDS011;18200;48.726;8.892;2023-10-08T05:20:21;13.93;;;5.60;;
31594;SDS011;18200;48.726;8.892;2023-10-08T05:24:42;10.68;;;4.65;;
31594;SDS011;18200;48.726;8.892;2023-10-08T05:28:51;9.57;;;4.43;;
31594;SDS011;18200;48.726;8.892;2023-10-08T05:33:01;12.35;;;4.97;;
31594;SDS011;18200;48.726;8.892;2023-10-08T05:37:24;10.35;;;4.60;;
31594;SDS011;18200;48.726;8.892;2023-10-08T05:41:41;11.68;;;4.35;;
31594;SDS011;18200;48.726;8.892;2023-10-08T05:45:51;12.32;;;4.95;;
31594;SDS011;18200;48.726;8.892;2023-10-08T05:50:15;9.95;;;4.82;;
31594;SDS011;18200;48.726;8.892;2023-10-08T05:54:19;12.55;;;4.85;;
31594;SDS011;18200;48.726;8.892;2023-10-08T05:58:29;12.98;;;4.38;;
31594;SDS011;18200;48.726;8.892;2023-10-08T06:02:45;9.77;;;4.10;;
31594;SDS011;18200;48.726;8.892;2023-10-08T06:06:46;11.45;;;5.20;;
31594;SDS011;18200;48.726;8.892;2023-10-08T06:10:57;16.92;;;5.85;;
31594;SDS011;18200;48.726;8.892;2023-10-08T06:15:01;15.82;;;5.28;;
31594;SDS011;18200;48.726;8.892;2023-10-08T06:19:08;14.38;;;5.18;;
31594;SDS011;18200;48.726;8.892;2023-10-08T06:23:15;36.22;;;15.25;;
31594;SDS011;18200;48.726;8.892;2023-10-08T06:27:18;14.65;;;7.80;;
31594;SDS011;18200;48.726;8.892;2023-10-08T06:31:20;15.38;;;6.07;;
31594;SDS011;18200;48.726;8.892;2023-10-08T06:35:24;14.43;;;5.72;;
31594;SDS011;18200;48.726;8.892;2023-10-08T06:39:25;11.55;;;5.07;;
31594;SDS011;18200;48.726;8.892;2023-10-08T06:43:33;15.93;;;5.25;;
31594;SDS011;18200;48.726;8.892;2023-10-08T06:47:36;15.48;;;5.75;;
31594;SDS011;18200;48.726;8.892;2023-10-08T06:51:40;14.43;;;5.15;;
31594;SDS011;18200;48.726;8.892;2023-10-08T06:55:43;13.82;;;5.00;;
31594;SDS011;18200;48.726;8.892;2023-10-08T06:59:44;11.23;;;4.20;;
31594;SDS011;18200;48.726;8.892;2023-10-08T07:03:49;16.08;;;6.45;;
31594;SDS011;18200;48.726;8.892;2023-10-08T07:07:57;13.60;;;5.43;;
31594;SDS011;18200;48.726;8.892;2023-10-08T07:11:57;15.98;;;5.60;;
31594;SDS011;18200;48.726;8.892;2023-10-08T07:15:58;10.50;;;5.03;;
31594;SDS011;18200;48.726;8.892;2023-10-08T07:20:04;13.57;;;4.90;;
31594;SDS011;18200;48.726;8.892;2023-10-08T07:24:14;13.30;;;6.03;;
31594;SDS011;18200;48.726;8.892;2023-10-08T07:28:18;11.55;;;5.10;;
31594;SDS011;18200;48.726;8.892;2023-10-08T07:32:19;14.52;;;4.70;;
31594;SDS011;18200;48.726;8.892;2023-10-08T07:36:25;18.40;;;5.07;;
31594;SDS011;18200;48.726;8.892;2023-10-08T07:40:27;12.77;;;5.15;;
31594;SDS011;18200;48.726;8.892;2023-10-08T07:44:29;10.38;;;4.30;;
31594;SDS011;18200;48.726;8.892;2023-10-08T07:48:36;11.60;;;4.18;;
31594;SDS011;18200;48.726;8.892;2023-10-08T07:52:36;9.75;;;4.32;;
31594;SDS011;18200;48.726;8.892;2023-10-08T07:56:37;11.93;;;4.50;;
31594;SDS011;18200;48.726;8.892;2023-10-08T08:00:37;12.18;;;4.20;;
31594;SDS011;18200;48.726;8.892;2023-10-08T08:04:41;10.70;;;4.22;;
31594;SDS011;18200;48.726;8.892;2023-10-08T08:08:43;12.23;;;4.50;;
31594;SDS011;18200;48.726;8.892;2023-10-08T08:12:44;9.90;;;5.00;;
31594;SDS011;18200;48.726;8.892;2023-10-08T08:16:45;11.02;;;4.10;;
31594;SDS011;18200;48.726;8.892;2023-10-08T08:20:48;10.20;;;4.20;;
31594;SDS011;18200;48.726;8.892;2023-10-08T08:24:50;9.95;;;4.18;;
31594;SDS011;18200;48.726;8.892;2023-10-08T08:28:56;12.27;;;3.92;;
31594;SDS011;18200;48.726;8.892;2023-10-08T08:32:59;10.00;;;4.23;;
31594;SDS011;18200;48.726;8.892;2023-10-08T08:37:10;10.63;;;3.90;;
31594;SDS011;18200;48.726;8.892;2023-10-08T08:41:11;16.67;;;4.43;;
31594;SDS011;18200;48.726;8.892;2023-10-08T08:45:13;9.02;;;3.60;;
31594;SDS011;18200;48.726;8.892;2023-10-08T08:49:16;11.38;;;3.90;;
31594;SDS011;18200;48.726;8.892;2023-10-08T08:53:18;11.32;;;4.38;;
31594;SDS011;18200;48.726;8.892;2023-10-08T08:57:19;10.77;;;3.90;;
31594;SDS011;18200;48.726;8.892;2023-10-08T09:01:20;16.75;;;9.20;;
31594;SDS011;18200;48.726;8.892;2023-10-08T09:05:20;14.52;;;5.45;;
31594;SDS011;18200;48.726;8.892;2023-10-08T09:09:34;16.83;;;9.70;;
31594;SDS011;18200;48.726;8.892;2023-10-08T09:13:39;17.67;;;6.72;;
31594;SDS011;18200;48.726;8.892;2023-10-08T09:17:40;10.23;;;4.03;;
31594;SDS011;18200;48.726;8.892;2023-10-08T09:21:40;18.63;;;4.88;;
31594;SDS011;18200;48.726;8.892;2023-10-08T09:25:42;11.68;;;4.78;;
31594;SDS011;18200;48.726;8.892;2023-10-08T09:29:43;13.13;;;4.57;;
31594;SDS011;18200;48.726;8.892;2023-10-08T09:33:53;13.02;;;4.10;;
31594;SDS011;18200;48.726;8.892;2023-10-08T09:37:54;26.52;;;4.63;;
31594;SDS011;18200;48.726;8.892;2023-10-08T09:41:56;11.82;;;4.35;;
31594;SDS011;18200;48.726;8.892;2023-10-08T09:46:07;14.55;;;4.50;;
31594;SDS011;18200;48.726;8.892;2023-10-08T09:50:13;12.55;;;4.82;;
31594;SDS011;18200;48.726;8.892;2023-10-08T09:54:17;16.13;;;4.88;;
31594;SDS011;18200;48.726;8.892;2023-10-08T09:58:25;11.60;;;4.30;;
31594;SDS011;18200;48.726;8.892;2023-10-08T10:02:29;11.25;;;4.07;;
31594;SDS011;18200;48.726;8.892;2023-10-08T10:06:31;12.13;;;4.88;;
31594;SDS011;18200;48.726;8.892;2023-10-08T10:10:32;15.20;;;4.47;;
31594;SDS011;18200;48.726;8.892;2023-10-08T10:14:41;18.15;;;4.88;;
31594;SDS011;18200;48.726;8.892;2023-10-08T10:18:43;15.57;;;3.72;;
31594;SDS011;18200;48.726;8.892;2023-10-08T10:22:48;12.35;;;4.20;;
31594;SDS011;18200;48.726;8.892;2023-10-08T10:26:48;8.85;;;4.00;;
31594;SDS011;18200;48.726;8.892;2023-10-08T10:30:50;13.93;;;4.78;;
31594;SDS011;18200;48.726;8.892;2023-10-08T10:34:51;16.17;;;4.43;;
31594;SDS011;18200;48.726;8.892;2023-10-08T10:38:52;9.82;;;3.80;;
31594;SDS011;18200;48.726;8.892;2023-10-08T10:42:55;11.35;;;4.22;;
31594;SDS011;18200;48.726;8.892;2023-10-08T10:46:56;14.43;;;4.90;;
31594;SDS011;18200;48.726;8.892;2023-10-08T10:51:16;16.25;;;4.60;;
31594;SDS011;18200;48.726;8.892;2023-10-08T10:55:18;12.55;;;4.50;;
31594;SDS011;18200;48.726;8.892;2023-10-08T10:59:22;19.35;;;5.07;;
31594;SDS011;18200;48.726;8.892;2023-10-08T11:03:27;14.38;;;4.65;;
31594;SDS011;18200;48.726;8.892;2023-10-08T11:07:28;19.83;;;4.53;;
31594;SDS011;18200;48.726;8.892;2023-10-08T11:11:29;18.80;;;4.18;;
31594;SDS011;18200;48.726;8.892;2023-10-08T11:15:30;18.15;;;4.85;;
31594;SDS011;18200;48.726;8.892;2023-10-08T11:19:38;16.27;;;4.95;;
31594;SDS011;18200;48.726;8.892;2023-10-08T11:23:41;19.52;;;5.28;;
31594;SDS011;18200;48.726;8.892;2023-10-08T11:27:43;18.75;;;4.65;;
31594;SDS011;18200;48.726;8.892;2023-10-08T11:31:45;18.85;;;5.57;;
31594;SDS011;18200;48.726;8.892;2023-10-08T11:35:56;14.88;;;4.78;;
31594;SDS011;18200;48.726;8.892;2023-10-08T11:39:59;16.08;;;5.25;;
31594;SDS011;18200;48.726;8.892;2023-10-08T11:44:08;19.52;;;4.72;;
31594;SDS011;18200;48.726;8.892;2023-10-08T11:48:16;20.67;;;5.30;;
31594;SDS011;18200;48.726;8.892;2023-10-08T11:52:25;19.52;;;5.50;;
31594;SDS011;18200;48.726;8.892;2023-10-08T11:56:28;22.85;;;5.18;;
31594;SDS011;18200;48.726;8.892;2023-10-08T12:00:29;19.33;;;5.50;;
31594;SDS011;18200;48.726;8.892;2023-10-08T12:04:29;20.35;;;5.05;;
31594;SDS011;18200;48.726;8.892;2023-10-08T12:08:30;20.48;;;5.80;;
31594;SDS011;18200;48.726;8.892;2023-10-08T12:12:30;20.75;;;5.05;;
31594;SDS011;18200;48.726;8.892;2023-10-08T12:16:32;17.88;;;5.32;;
31594;SDS011;18200;48.726;8.892;2023-10-08T12:20:36;24.70;;;5.70;;
31594;SDS011;18200;48.726;8.892;2023-10-08T12:24:37;19.23;;;5.30;;
31594;SDS011;18200;48.726;8.892;2023-10-08T12:28:38;16.33;;;4.55;;
31594;SDS011;18200;48.726;8.892;2023-10-08T12:32:38;20.48;;;4.70;;
31594;SDS011;18200;48.726;8.892;2023-10-08T12:36:42;20.83;;;4.78;;
31594;SDS011;18200;48.726;8.892;2023-10-08T12:40:42;28.90;;;5.07;;
31594;SDS011;18200;48.726;8.892;2023-10-08T12:44:47;26.95;;;5.40;;
31594;SDS011;18200;48.726;8.892;2023-10-08T12:48:48;20.95;;;5.47;;
31594;SDS011;18200;48.726;8.892;2023-10-08T12:52:52;24.30;;;5.32;;
31594;SDS011;18200;48.726;8.892;2023-10-08T12:56:55;23.65;;;5.28;;
31594;SDS011;18200;48.726;8.892;2023-10-08T13:00:58;26.63;;;5.10;;
31594;SDS011;18200;48.726;8.892;2023-10-08T13:05:03;26.42;;;5.75;;
31594;SDS011;18200;48.726;8.892;2023-10-08T13:09:15;19.70;;;4.95;;
31594;SDS011;18200;48.726;8.892;2023-10-08T13:13:15;22.47;;;5.73;;
31594;SDS011;18200;48.726;8.892;2023-10-08T13:17:15;22.55;;;5.07;;
31594;SDS011;18200;48.726;8.892;2023-10-08T13:21:16;24.77;;;5.80;;
31594;SDS011;18200;48.726;8.892;2023-10-08T13:25:19;26.60;;;5.10;;
31594;SDS011;18200;48.726;8.892;2023-10-08T13:29:20;20.95;;;4.45;;
31594;SDS011;18200;48.726;8.892;2023-10-08T13:33:21;23.35;;;5.07;;
31594;SDS011;18200;48.726;8.892;2023-10-08T13:37:25;20.52;;;5.32;;
31594;SDS011;18200;48.726;8.892;2023-10-08T13:41:25;23.05;;;5.53;;
31594;SDS011;18200;48.726;8.892;2023-10-08T13:49:30;21.80;;;4.60;;
31594;SDS011;18200;48.726;8.892;2023-10-08T13:53:31;30.52;;;5.65;;
31594;SDS011;18200;48.726;8.892;2023-10-08T13:57:32;23.67;;;5.35;;
31594;SDS011;18200;48.726;8.892;2023-10-08T14:01:33;21.35;;;4.65;;
31594;SDS011;18200;48.726;8.892;2023-10-08T14:05:34;21.45;;;4.70;;
31594;SDS011;18200;48.726;8.892;2023-10-08T14:09:35;26.13;;;5.32;;
31594;SDS011;18200;48.726;8.892;2023-10-08T14:13:38;21.60;;;5.22;;
31594;SDS011;18200;48.726;8.892;2023-10-08T14:17:43;23.52;;;5.28;;
31594;SDS011;18200;48.726;8.892;2023-10-08T14:21:48;23.42;;;4.72;;
31594;SDS011;18200;48.726;8.892;2023-10-08T14:26:00;21.08;;;5.10;;
31594;SDS011;18200;48.726;8.892;2023-10-08T14:30:03;18.85;;;5.25;;
31594;SDS011;18200;48.726;8.892;2023-10-08T14:34:05;27.55;;;5.93;;
31594;SDS011;18200;48.726;8.892;2023-10-08T14:38:18;22.80;;;5.90;;
31594;SDS011;18200;48.726;8.892;2023-10-08T14:42:38;23.75;;;5.15;;
31594;SDS011;18200;48.726;8.892;2023-10-08T14:46:55;26.55;;;5.47;;
31594;SDS011;18200;48.726;8.892;2023-10-08T14:50:55;21.92;;;5.25;;
31594;SDS011;18200;48.726;8.892;2023-10-08T14:54:56;18.70;;;5.70;;
31594;SDS011;18200;48.726;8.892;2023-10-08T14:58:57;19.60;;;5.80;;
31594;SDS011;18200;48.726;8.892;2023-10-08T15:02:57;21.77;;;5.65;;
31594;SDS011;18200;48.726;8.892;2023-10-08T15:07:02;20.02;;;5.60;;
31594;SDS011;18200;48.726;8.892;2023-10-08T15:11:03;19.73;;;5.47;;
31594;SDS011;18200;48.726;8.892;2023-10-08T15:15:06;25.13;;;5.97;;
31594;SDS011;18200;48.726;8.892;2023-10-08T15:19:13;27.63;;;5.53;;
31594;SDS011;18200;48.726;8.892;2023-10-08T15:23:15;24.50;;;5.82;;
31594;SDS011;18200;48.726;8.892;2023-10-08T15:27:17;25.48;;;5.55;;
31594;SDS011;18200;48.726;8.892;2023-10-08T15:31:17;24.10;;;5.50;;
31594;SDS011;18200;48.726;8.892;2023-10-08T15:35:18;20.37;;;5.77;;
31594;SDS011;18200;48.726;8.892;2023-10-08T15:39:25;22.08;;;5.13;;
31594;SDS011;18200;48.726;8.892;2023-10-08T15:43:28;25.85;;;5.45;;
31594;SDS011;18200;48.726;8.892;2023-10-08T15:47:30;24.88;;;5.75;;
31594;SDS011;18200;48.726;8.892;2023-10-08T15:51:31;23.85;;;6.13;;
31594;SDS011;18200;48.726;8.892;2023-10-08T15:55:32;27.45;;;6.80;;
31594;SDS011;18200;48.726;8.892;2023-10-08T15:59:32;20.05;;;5.75;;
31594;SDS011;18200;48.726;8.892;2023-10-08T16:03:33;26.03;;;8.30;;
31594;SDS011;18200;48.726;8.892;2023-10-08T16:07:33;19.33;;;6.03;;
31594;SDS011;18200;48.726;8.892;2023-10-08T16:11:33;16.95;;;5.43;;
31594;SDS011;18200;48.726;8.892;2023-10-08T16:15:36;18.98;;;5.78;;
31594;SDS011;18200;48.726;8.892;2023-10-08T16:19:36;31.88;;;12.05;;
31594;SDS011;18200;48.726;8.892;2023-10-08T16:23:37;23.00;;;9.25;;
31594;SDS011;18200;48.726;8.892;2023-10-08T16:27:38;31.08;;;11.15;;
31594;SDS011;18200;48.726;8.892;2023-10-08T16:31:39;28.33;;;9.85;;
31594;SDS011;18200;48.726;8.892;2023-10-08T16:35:41;22.02;;;8.40;;
31594;SDS011;18200;48.726;8.892;2023-10-08T16:39:41;23.55;;;8.80;;
31594;SDS011;18200;48.726;8.892;2023-10-08T16:43:41;25.08;;;9.13;;
31594;SDS011;18200;48.726;8.892;2023-10-08T16:47:42;28.00;;;8.23;;
31594;SDS011;18200;48.726;8.892;2023-10-08T16:51:44;24.58;;;7.53;;
31594;SDS011;18200;48.726;8.892;2023-10-08T16:55:45;26.20;;;9.40;;
31594;SDS011;18200;48.726;8.892;2023-10-08T16:59:45;29.30;;;8.55;;
31594;SDS011;18200;48.726;8.892;2023-10-08T17:03:46;22.83;;;7.25;;
31594;SDS011;18200;48.726;8.892;2023-10-08T17:07:46;19.38;;;7.22;;
31594;SDS011;18200;48.726;8.892;2023-10-08T17:11:47;25.02;;;7.22;;
31594;SDS011;18200;48.726;8.892;2023-10-08T17:15:48;18.80;;;6.90;;
31594;SDS011;18200;48.726;8.892;2023-10-08T17:19:49;25.10;;;7.45;;
31594;SDS011;18200;48.726;8.892;2023-10-08T17:23:51;25.95;;;7.93;;
31594;SDS011;18200;48.726;8.892;2023-10-08T17:27:51;17.58;;;6.50;;
31594;SDS011;18200;48.726;8.892;2023-10-08T17:31:51;18.50;;;6.88;;
31594;SDS011;18200;48.726;8.892;2023-10-08T17:35:52;21.40;;;7.05;;
31594;SDS011;18200;48.726;8.892;2023-10-08T17:39:53;23.40;;;7.10;;
31594;SDS011;18200;48.726;8.892;2023-10-08T17:43:53;22.00;;;6.20;;
31594;SDS011;18200;48.726;8.892;2023-10-08T17:47:54;19.70;;;6.45;;
31594;SDS011;18200;48.726;8.892;2023-10-08T17:51:55;15.65;;;6.53;;
31594;SDS011;18200;48.726;8.892;2023-10-08T17:55:56;26.05;;;6.55;;
31594;SDS011;18200;48.726;8.892;2023-10-08T17:59:56;20.02;;;7.20;;
31594;SDS011;18200;48.726;8.892;2023-10-08T18:03:57;23.25;;;9.77;;
31594;SDS011;18200;48.726;8.892;2023-10-08T18:07:58;21.13;;;7.00;;
31594;SDS011;18200;48.726;8.892;2023-10-08T18:11:59;17.60;;;7.00;;
31594;SDS011;18200;48.726;8.892;2023-10-08T18:16:00;21.58;;;6.63;;
31594;SDS011;18200;48.726;8.892;2023-10-08T18:20:00;22.60;;;6.88;;
31594;SDS011;18200;48.726;8.892;2023-10-08T18:24:01;18.05;;;6.78;;
31594;SDS011;18200;48.726;8.892;2023-10-08T18:28:01;25.67;;;7.00;;
31594;SDS011;18200;48.726;8.892;2023-10-08T18:32:03;16.77;;;6.93;;
31594;SDS011;18200;48.726;8.892;2023-10-08T18:36:09;19.52;;;5.97;;
31594;SDS011;18200;48.726;8.892;2023-10-08T18:40:11;24.25;;;7.10;;
31594;SDS011;18200;48.726;8.892;2023-10-08T18:44:15;25.50;;;6.57;;
31594;SDS011;18200;48.726;8.892;2023-10-08T18:48:16;22.60;;;6.75;;
31594;SDS011;18200;48.726;8.892;2023-10-08T18:52:16;20.80;;;7.35;;
31594;SDS011;18200;48.726;8.892;2023-10-08T18:56:17;20.90;;;7.90;;
31594;SDS011;18200;48.726;8.892;2023-10-08T19:00:19;19.92;;;6.65;;
31594;SDS011;18200;48.726;8.892;2023-10-08T19:04:20;31.90;;;6.68;;
31594;SDS011;18200;48.726;8.892;2023-10-08T19:08:20;21.73;;;6.50;;
31594;SDS011;18200;48.726;8.892;2023-10-08T19:12:22;17.15;;;6.90;;
31594;SDS011;18200;48.726;8.892;2023-10-08T19:16:22;25.55;;;6.50;;
31594;SDS011;18200;48.726;8.892;2023-10-08T19:20:24;17.30;;;6.05;;
31594;SDS011;18200;48.726;8.892;2023-10-08T19:24:25;15.65;;;5.97;;
31594;SDS011;18200;48.726;8.892;2023-10-08T19:28:26;17.65;;;6.32;;
31594;SDS011;18200;48.726;8.892;2023-10-08T19:32:26;16.95;;;6.00;;
31594;SDS011;18200;48.726;8.892;2023-10-08T19:36:27;21.33;;;6.82;;
31594;SDS011;18200;48.726;8.892;2023-10-08T19:40:32;13.82;;;5.82;;
31594;SDS011;18200;48.726;8.892;2023-10-08T19:44:34;18.73;;;5.90;;
31594;SDS011;18200;48.726;8.892;2023-10-08T19:48:35;16.70;;;5.57;;
31594;SDS011;18200;48.726;8.892;2023-10-08T19:52:40;18.50;;;6.15;;
31594;SDS011;18200;48.726;8.892;2023-10-08T19:56:42;18.88;;;5.68;;
31594;SDS011;18200;48.726;8.892;2023-10-08T20:00:46;15.82;;;6.30;;
31594;SDS011;18200;48.726;8.892;2023-10-08T20:04:48;19.52;;;6.38;;
31594;SDS011;18200;48.726;8.892;2023-10-08T20:08:48;17.58;;;5.78;;
31594;SDS011;18200;48.726;8.892;2023-10-08T20:12:51;20.52;;;7.05;;
31594;SDS011;18200;48.726;8.892;2023-10-08T20:16:54;28.73;;;9.13;;
31594;SDS011;18200;48.726;8.892;2023-10-08T20:20:55;22.05;;;6.82;;
31594;SDS011;18200;48.726;8.892;2023-10-08T20:24:55;25.63;;;8.10;;
31594;SDS011;18200;48.726;8.892;2023-10-08T20:28:56;22.15;;;7.60;;
31594;SDS011;18200;48.726;8.892;2023-10-08T20:32:57;16.33;;;7.03;;
31594;SDS011;18200;48.726;8.892;2023-10-08T20:36:59;21.38;;;7.03;;
31594;SDS011;18200;48.726;8.892;2023-10-08T20:40:59;18.23;;;7.18;;
31594;SDS011;18200;48.726;8.892;2023-10-08T20:45:00;21.08;;;7.55;;
31594;SDS011;18200;48.726;8.892;2023-10-08T20:49:07;16.15;;;6.10;;
31594;SDS011;18200;48.726;8.892;2023-10-08T20:53:08;24.27;;;6.57;;
31594;SDS011;18200;48.726;8.892;2023-10-08T20:57:10;21.35;;;6.68;;
31594;SDS011;18200;48.726;8.892;2023-10-08T21:01:10;20.58;;;6.75;;
31594;SDS011;18200;48.726;8.892;2023-10-08T21:05:14;22.60;;;7.18;;
31594;SDS011;18200;48.726;8.892;2023-10-08T21:09:15;19.75;;;6.80;;
31594;SDS011;18200;48.726;8.892;2023-10-08T21:13:16;25.55;;;8.13;;
31594;SDS011;18200;48.726;8.892;2023-10-08T21:17:16;16.02;;;6.80;;
31594;SDS011;18200;48.726;8.892;2023-10-08T21:21:17;16.90;;;6.47;;
31594;SDS011;18200;48.726;8.892;2023-10-08T21:25:19;21.88;;;6.82;;
31594;SDS011;18200;48.726;8.892;2023-10-08T21:29:20;16.30;;;7.07;;
31594;SDS011;18200;48.726;8.892;2023-10-08T21:33:20;22.38;;;6.75;;
31594;SDS011;18200;48.726;8.892;2023-10-08T21:37:21;20.27;;;6.80;;
31594;SDS011;18200;48.726;8.892;2023-10-08T21:41:22;21.45;;;6.20;;
31594;SDS011;18200;48.726;8.892;2023-10-08T21:45:23;19.45;;;6.88;;
31594;SDS011;18200;48.726;8.892;2023-10-08T21:49:23;18.55;;;6.30;;
31594;SDS011;18200;48.726;8.892;2023-10-08T21:53:24;21.98;;;6.20;;
31594;SDS011;18200;48.726;8.892;2023-10-08T21:57:24;18.15;;;6.07;;
31594;SDS011;18200;48.726;8.892;2023-10-08T22:01:25;20.45;;;6.82;;
31594;SDS011;18200;48.726;8.892;2023-10-08T22:05:28;21.33;;;7.10;;
31594;SDS011;18200;48.726;8.892;2023-10-08T22:09:31;22.13;;;6.63;;
31594;SDS011;18200;48.726;8.892;2023-10-08T22:13:35;23.38;;;6.85;;
31594;SDS011;18200;48.726;8.892;2023-10-08T22:17:38;23.95;;;6.53;;
31594;SDS011;18200;48.726;8.892;2023-10-08T22:21:43;29.65;;;8.15;;
31594;SDS011;18200;48.726;8.892;2023-10-08T22:25:47;27.77;;;6.70;;
31594;SDS011;18200;48.726;8.892;2023-10-08T22:29:49;24.55;;;6.80;;
31594;SDS011;18200;48.726;8.892;2023-10-08T22:33:50;20.45;;;6.43;;
31594;SDS011;18200;48.726;8.892;2023-10-08T22:37:52;30.30;;;7.88;;
31594;SDS011;18200;48.726;8.892;2023-10-08T22:42:02;23.20;;;6.53;;
31594;SDS011;18200;48.726;8.892;2023-10-08T22:46:03;19.17;;;5.47;;
31594;SDS011;18200;48.726;8.892;2023-10-08T22:50:06;28.35;;;7.63;;
31594;SDS011;18200;48.726;8.892;2023-10-08T22:54:27;24.48;;;6.68;;
31594;SDS011;18200;48.726;8.892;2023-10-08T22:58:27;22.00;;;6.30;;
31594;SDS011;18200;48.726;8.892;2023-10-08T23:02:29;18.02;;;5.80;;
31594;SDS011;18200;48.726;8.892;2023-10-08T23:06:30;19.42;;;6.30;;
31594;SDS011;18200;48.726;8.892;2023-10-08T23:10:30;18.52;;;5.88;;
31594;SDS011;18200;48.726;8.892;2023-10-08T23:14:31;19.38;;;6.60;;
31594;SDS011;18200;48.726;8.892;2023-10-08T23:18:31;25.15;;;6.85;;
31594;SDS011;18200;48.726;8.892;2023-10-08T23:22:32;26.15;;;6.85;;
31594;SDS011;18200;48.726;8.892;2023-10-08T23:26:36;29.35;;;8.18;;
31594;SDS011;18200;48.726;8.892;2023-10-08T23:30:37;24.33;;;7.07;;
31594;SDS011;18200;48.726;8.892;2023-10-08T23:34:38;30.05;;;6.85;;
31594;SDS011;18200;48.726;8.892;2023-10-08T23:38:42;28.33;;;7.53;;
31594;SDS011;18200;48.726;8.892;2023-10-08T23:42:46;36.65;;;7.60;;
31594;SDS011;18200;48.726;8.892;2023-10-08T23:46:47;33.15;;;6.93;;
31594;SDS011;18200;48.726;8.892;2023-10-08T23:51:01;33.65;;;7.90;;
31594;SDS011;18200;48.726;8.892;2023-10-08T23:55:04;25.65;;;6.72;;
31594;SDS011;18200;48.726;8.892;2023-10-08T23:59:06;32.08;;;7.05;;
